sensor_id;sensor_type;location;lat;lon;timestamp;temperature;humidity
47022;DHT22;32779;52.264;6.154;2023-02-28T00:02:20;1.40;99.90
47022;DHT22;32779;52.264;6.154;2023-02-28T00:04:46;1.40;99.90
47022;DHT22;32779;52.264;6.154;2023-02-28T00:07:18;1.50;99.90
47022;DHT22;32779;52.264;6.154;2023-02-28T00:09:44;1.50;99.90
47022;DHT22;32779;52.264;6.154;2023-02-28T00:12:10;1.60;99.90
47022;DHT22;32779;52.264;6.154;2023-02-28T00:14:36;1.60;99.90
47022;DHT22;32779;52.264;6.154;2023-02-28T00:17:02;1.60;99.90
47022;DHT22;32779;52.264;6.154;2023-02-28T00:19:27;1.60;99.90
47022;DHT22;32779;52.264;6.154;2023-02-28T00:21:53;1.60;99.90
47022;DHT22;32779;52.264;6.154;2023-02-28T00:24:18;1.60;99.90
47022;DHT22;32779;52.264;6.154;2023-02-28T00:26:44;1.60;99.90
47022;DHT22;32779;52.264;6.154;2023-02-28T00:29:09;1.60;99.90
47022;DHT22;32779;52.264;6.154;2023-02-28T00:31:35;1.70;99.90
47022;DHT22;32779;52.264;6.154;2023-02-28T00:34:01;1.70;99.90
47022;DHT22;32779;52.264;6.154;2023-02-28T00:36:26;1.80;99.90
47022;DHT22;32779;52.264;6.154;2023-02-28T00:38:52;1.80;99.90
47022;DHT22;32779;52.264;6.154;2023-02-28T00:41:18;1.80;99.90
47022;DHT22;32779;52.264;6.154;2023-02-28T00:43:44;1.80;99.90
47022;DHT22;32779;52.264;6.154;2023-02-28T00:46:09;1.80;99.90
47022;DHT22;32779;52.264;6.154;2023-02-28T00:48:35;1.80;99.90
47022;DHT22;32779;52.264;6.154;2023-02-28T00:51:01;1.90;99.90
47022;DHT22;32779;52.264;6.154;2023-02-28T00:53:27;1.90;99.90
47022;DHT22;32779;52.264;6.154;2023-02-28T00:55:53;1.90;99.90
47022;DHT22;32779;52.264;6.154;2023-02-28T00:58:19;1.90;99.90
47022;DHT22;32779;52.264;6.154;2023-02-28T01:00:45;2.00;99.90
47022;DHT22;32779;52.264;6.154;2023-02-28T01:03:17;2.00;99.90
47022;DHT22;32779;52.264;6.154;2023-02-28T01:05:43;2.00;99.90
47022;DHT22;32779;52.264;6.154;2023-02-28T01:08:09;2.00;99.90
47022;DHT22;32779;52.264;6.154;2023-02-28T01:10:34;2.00;99.90
47022;DHT22;32779;52.264;6.154;2023-02-28T01:13:02;1.90;99.90
47022;DHT22;32779;52.264;6.154;2023-02-28T01:15:28;1.90;99.90
47022;DHT22;32779;52.264;6.154;2023-02-28T01:17:54;1.90;99.90
47022;DHT22;32779;52.264;6.154;2023-02-28T01:20:19;1.90;99.90
47022;DHT22;32779;52.264;6.154;2023-02-28T01:22:45;1.90;99.90
47022;DHT22;32779;52.264;6.154;2023-02-28T01:25:12;1.90;99.90
47022;DHT22;32779;52.264;6.154;2023-02-28T01:27:37;1.90;99.90
47022;DHT22;32779;52.264;6.154;2023-02-28T01:30:05;1.90;99.90
47022;DHT22;32779;52.264;6.154;2023-02-28T01:32:31;2.00;99.90
47022;DHT22;32779;52.264;6.154;2023-02-28T01:34:57;2.00;99.90
47022;DHT22;32779;52.264;6.154;2023-02-28T01:37:23;2.00;99.90
47022;DHT22;32779;52.264;6.154;2023-02-28T01:39:48;2.10;99.90
47022;DHT22;32779;52.264;6.154;2023-02-28T01:42:14;2.10;99.90
47022;DHT22;32779;52.264;6.154;2023-02-28T01:47:33;2.10;99.90
47022;DHT22;32779;52.264;6.154;2023-02-28T01:50:02;2.10;99.90
47022;DHT22;32779;52.264;6.154;2023-02-28T01:52:30;2.10;99.90
47022;DHT22;32779;52.264;6.154;2023-02-28T01:54:59;2.10;99.90
47022;DHT22;32779;52.264;6.154;2023-02-28T01:57:29;2.10;99.90
47022;DHT22;32779;52.264;6.154;2023-02-28T02:00:03;2.10;99.90
47022;DHT22;32779;52.264;6.154;2023-02-28T02:02:30;2.10;99.90
47022;DHT22;32779;52.264;6.154;2023-02-28T02:05:07;2.10;99.90
47022;DHT22;32779;52.264;6.154;2023-02-28T02:07:36;2.10;99.90
47022;DHT22;32779;52.264;6.154;2023-02-28T02:10:21;2.10;99.90
47022;DHT22;32779;52.264;6.154;2023-02-28T02:13:14;2.10;99.90
47022;DHT22;32779;52.264;6.154;2023-02-28T02:29:34;2.20;99.90
47022;DHT22;32779;52.264;6.154;2023-02-28T02:35:17;2.10;99.90
47022;DHT22;32779;52.264;6.154;2023-02-28T02:38:02;2.10;99.90
47022;DHT22;32779;52.264;6.154;2023-02-28T02:41:06;2.20;99.90
47022;DHT22;32779;52.264;6.154;2023-02-28T02:43:38;2.20;99.90
47022;DHT22;32779;52.264;6.154;2023-02-28T02:46:23;2.20;99.90
47022;DHT22;32779;52.264;6.154;2023-02-28T02:48:50;2.20;99.90
47022;DHT22;32779;52.264;6.154;2023-02-28T02:51:20;2.20;99.90
47022;DHT22;32779;52.264;6.154;2023-02-28T02:53:51;2.30;99.90
47022;DHT22;32779;52.264;6.154;2023-02-28T02:56:20;2.30;99.90
47022;DHT22;32779;52.264;6.154;2023-02-28T02:58:49;2.30;99.90
47022;DHT22;32779;52.264;6.154;2023-02-28T03:01:18;2.30;99.90
47022;DHT22;32779;52.264;6.154;2023-02-28T03:03:59;2.20;99.90
47022;DHT22;32779;52.264;6.154;2023-02-28T03:06:26;2.20;99.90
47022;DHT22;32779;52.264;6.154;2023-02-28T03:08:52;2.20;99.90
47022;DHT22;32779;52.264;6.154;2023-02-28T03:11:17;2.20;99.90
47022;DHT22;32779;52.264;6.154;2023-02-28T03:19:03;2.20;99.90
47022;DHT22;32779;52.264;6.154;2023-02-28T03:24:18;2.10;99.90
47022;DHT22;32779;52.264;6.154;2023-02-28T03:26:50;2.10;99.90
47022;DHT22;32779;52.264;6.154;2023-02-28T03:29:27;2.10;99.90
47022;DHT22;32779;52.264;6.154;2023-02-28T03:33:06;2.10;99.90
47022;DHT22;32779;52.264;6.154;2023-02-28T03:35:21;2.10;99.90
47022;DHT22;32779;52.264;6.154;2023-02-28T03:37:50;2.10;99.90
47022;DHT22;32779;52.264;6.154;2023-02-28T03:40:20;2.10;99.90
47022;DHT22;32779;52.264;6.154;2023-02-28T03:42:50;2.10;99.90
47022;DHT22;32779;52.264;6.154;2023-02-28T03:45:21;2.10;99.90
47022;DHT22;32779;52.264;6.154;2023-02-28T03:47:57;2.10;99.90
47022;DHT22;32779;52.264;6.154;2023-02-28T03:50:34;2.10;99.90
47022;DHT22;32779;52.264;6.154;2023-02-28T03:55:49;2.00;99.90
47022;DHT22;32779;52.264;6.154;2023-02-28T03:59:21;1.90;99.90
47022;DHT22;32779;52.264;6.154;2023-02-28T04:01:28;1.90;99.90
47022;DHT22;32779;52.264;6.154;2023-02-28T04:03:55;1.90;99.90
47022;DHT22;32779;52.264;6.154;2023-02-28T04:06:22;1.90;99.90
47022;DHT22;32779;52.264;6.154;2023-02-28T04:08:48;1.90;99.90
47022;DHT22;32779;52.264;6.154;2023-02-28T04:13:58;1.80;99.90
47022;DHT22;32779;52.264;6.154;2023-02-28T04:16:24;1.80;99.90
47022;DHT22;32779;52.264;6.154;2023-02-28T04:18:50;1.90;99.90
47022;DHT22;32779;52.264;6.154;2023-02-28T04:21:15;1.80;99.90
47022;DHT22;32779;52.264;6.154;2023-02-28T04:23:41;1.80;99.90
47022;DHT22;32779;52.264;6.154;2023-02-28T04:26:06;1.80;99.90
47022;DHT22;32779;52.264;6.154;2023-02-28T04:28:33;1.70;99.90
47022;DHT22;32779;52.264;6.154;2023-02-28T04:31:02;1.70;99.90
47022;DHT22;32779;52.264;6.154;2023-02-28T04:33:29;1.70;99.90
47022;DHT22;32779;52.264;6.154;2023-02-28T04:36:06;1.60;99.90
47022;DHT22;32779;52.264;6.154;2023-02-28T04:38:37;1.70;99.90
47022;DHT22;32779;52.264;6.154;2023-02-28T04:41:03;1.60;99.90
47022;DHT22;32779;52.264;6.154;2023-02-28T04:43:30;1.60;99.90
47022;DHT22;32779;52.264;6.154;2023-02-28T04:45:57;1.50;99.90
47022;DHT22;32779;52.264;6.154;2023-02-28T04:48:24;1.50;99.90
47022;DHT22;32779;52.264;6.154;2023-02-28T04:50:50;1.50;99.90
47022;DHT22;32779;52.264;6.154;2023-02-28T04:53:16;1.50;99.90
47022;DHT22;32779;52.264;6.154;2023-02-28T04:55:42;1.40;99.90
47022;DHT22;32779;52.264;6.154;2023-02-28T04:58:08;1.40;99.90
47022;DHT22;32779;52.264;6.154;2023-02-28T05:00:33;1.40;99.90
47022;DHT22;32779;52.264;6.154;2023-02-28T05:02:59;1.40;99.90
47022;DHT22;32779;52.264;6.154;2023-02-28T05:05:24;1.40;99.90
47022;DHT22;32779;52.264;6.154;2023-02-28T05:07:50;1.40;99.90
47022;DHT22;32779;52.264;6.154;2023-02-28T05:10:16;1.40;99.90
47022;DHT22;32779;52.264;6.154;2023-02-28T05:12:41;1.50;99.90
47022;DHT22;32779;52.264;6.154;2023-02-28T05:15:11;1.50;99.90
47022;DHT22;32779;52.264;6.154;2023-02-28T05:17:37;1.50;99.90
47022;DHT22;32779;52.264;6.154;2023-02-28T05:20:03;1.50;99.90
47022;DHT22;32779;52.264;6.154;2023-02-28T05:22:31;1.50;99.90
47022;DHT22;32779;52.264;6.154;2023-02-28T05:24:57;1.40;99.90
47022;DHT22;32779;52.264;6.154;2023-02-28T05:27:23;1.50;99.90
47022;DHT22;32779;52.264;6.154;2023-02-28T05:29:49;1.40;99.90
47022;DHT22;32779;52.264;6.154;2023-02-28T05:32:15;1.40;99.90
47022;DHT22;32779;52.264;6.154;2023-02-28T05:34:41;1.40;99.90
47022;DHT22;32779;52.264;6.154;2023-02-28T05:37:11;1.40;99.90
47022;DHT22;32779;52.264;6.154;2023-02-28T05:39:37;1.40;99.90
47022;DHT22;32779;52.264;6.154;2023-02-28T05:42:04;1.40;99.90
47022;DHT22;32779;52.264;6.154;2023-02-28T05:44:30;1.40;99.90
47022;DHT22;32779;52.264;6.154;2023-02-28T05:46:55;1.40;99.90
47022;DHT22;32779;52.264;6.154;2023-02-28T05:49:21;1.40;99.90
47022;DHT22;32779;52.264;6.154;2023-02-28T05:51:47;1.40;99.90
47022;DHT22;32779;52.264;6.154;2023-02-28T05:54:12;1.40;99.90
47022;DHT22;32779;52.264;6.154;2023-02-28T05:56:38;1.40;99.90
47022;DHT22;32779;52.264;6.154;2023-02-28T05:59:09;1.50;99.90
47022;DHT22;32779;52.264;6.154;2023-02-28T06:01:38;1.50;99.90
47022;DHT22;32779;52.264;6.154;2023-02-28T06:04:06;1.50;99.90
47022;DHT22;32779;52.264;6.154;2023-02-28T06:06:32;1.50;99.90
47022;DHT22;32779;52.264;6.154;2023-02-28T06:09:00;1.50;99.90
47022;DHT22;32779;52.264;6.154;2023-02-28T06:11:26;1.40;99.90
47022;DHT22;32779;52.264;6.154;2023-02-28T06:13:57;1.50;99.90
47022;DHT22;32779;52.264;6.154;2023-02-28T06:16:25;1.40;99.90
47022;DHT22;32779;52.264;6.154;2023-02-28T06:18:50;1.40;99.90
47022;DHT22;32779;52.264;6.154;2023-02-28T06:21:18;1.40;99.90
47022;DHT22;32779;52.264;6.154;2023-02-28T06:23:43;1.50;99.90
47022;DHT22;32779;52.264;6.154;2023-02-28T06:26:09;1.50;99.90
47022;DHT22;32779;52.264;6.154;2023-02-28T06:28:35;1.60;99.90
47022;DHT22;32779;52.264;6.154;2023-02-28T06:31:09;1.60;99.90
47022;DHT22;32779;52.264;6.154;2023-02-28T06:33:36;1.60;99.90
47022;DHT22;32779;52.264;6.154;2023-02-28T06:36:02;1.60;99.90
47022;DHT22;32779;52.264;6.154;2023-02-28T06:38:28;1.60;99.90
47022;DHT22;32779;52.264;6.154;2023-02-28T06:40:58;1.60;99.90
47022;DHT22;32779;52.264;6.154;2023-02-28T06:43:25;1.60;99.90
47022;DHT22;32779;52.264;6.154;2023-02-28T06:45:55;1.50;99.90
47022;DHT22;32779;52.264;6.154;2023-02-28T06:48:21;1.50;99.90
47022;DHT22;32779;52.264;6.154;2023-02-28T06:50:46;1.50;99.90
47022;DHT22;32779;52.264;6.154;2023-02-28T06:53:12;1.50;99.90
47022;DHT22;32779;52.264;6.154;2023-02-28T06:55:39;1.50;99.90
47022;DHT22;32779;52.264;6.154;2023-02-28T06:58:05;1.50;99.90
47022;DHT22;32779;52.264;6.154;2023-02-28T07:00:41;1.50;99.90
47022;DHT22;32779;52.264;6.154;2023-02-28T07:03:07;1.60;99.90
47022;DHT22;32779;52.264;6.154;2023-02-28T07:05:35;1.60;99.90
47022;DHT22;32779;52.264;6.154;2023-02-28T07:08:01;1.70;99.90
47022;DHT22;32779;52.264;6.154;2023-02-28T07:10:27;1.80;99.90
47022;DHT22;32779;52.264;6.154;2023-02-28T07:12:52;1.90;99.90
47022;DHT22;32779;52.264;6.154;2023-02-28T07:15:18;1.90;99.90
47022;DHT22;32779;52.264;6.154;2023-02-28T07:17:43;1.90;99.90
47022;DHT22;32779;52.264;6.154;2023-02-28T07:20:09;1.90;99.90
47022;DHT22;32779;52.264;6.154;2023-02-28T07:22:35;1.90;99.90
47022;DHT22;32779;52.264;6.154;2023-02-28T07:25:00;1.90;99.90
47022;DHT22;32779;52.264;6.154;2023-02-28T07:27:26;2.10;99.90
47022;DHT22;32779;52.264;6.154;2023-02-28T07:29:52;2.10;99.90
47022;DHT22;32779;52.264;6.154;2023-02-28T07:32:18;2.20;99.90
47022;DHT22;32779;52.264;6.154;2023-02-28T07:34:44;2.20;99.90
47022;DHT22;32779;52.264;6.154;2023-02-28T07:37:10;2.30;99.90
47022;DHT22;32779;52.264;6.154;2023-02-28T07:39:36;2.40;99.90
47022;DHT22;32779;52.264;6.154;2023-02-28T07:42:05;2.50;99.90
47022;DHT22;32779;52.264;6.154;2023-02-28T07:44:31;2.60;99.90
47022;DHT22;32779;52.264;6.154;2023-02-28T07:46:57;2.70;99.90
47022;DHT22;32779;52.264;6.154;2023-02-28T07:49:23;2.70;99.90
47022;DHT22;32779;52.264;6.154;2023-02-28T07:51:48;2.80;99.90
47022;DHT22;32779;52.264;6.154;2023-02-28T07:54:14;2.90;99.90
47022;DHT22;32779;52.264;6.154;2023-02-28T07:56:40;3.00;99.90
47022;DHT22;32779;52.264;6.154;2023-02-28T07:59:05;3.00;99.90
47022;DHT22;32779;52.264;6.154;2023-02-28T08:01:31;3.10;99.90
47022;DHT22;32779;52.264;6.154;2023-02-28T08:03:56;3.00;99.90
47022;DHT22;32779;52.264;6.154;2023-02-28T08:06:23;3.00;99.90
47022;DHT22;32779;52.264;6.154;2023-02-28T08:08:50;3.00;99.90
47022;DHT22;32779;52.264;6.154;2023-02-28T08:11:16;3.10;99.90
47022;DHT22;32779;52.264;6.154;2023-02-28T08:13:42;3.10;99.90
47022;DHT22;32779;52.264;6.154;2023-02-28T08:16:09;3.20;99.90
47022;DHT22;32779;52.264;6.154;2023-02-28T08:18:35;3.20;99.90
47022;DHT22;32779;52.264;6.154;2023-02-28T08:21:07;3.30;99.90
47022;DHT22;32779;52.264;6.154;2023-02-28T08:23:32;3.40;99.90
47022;DHT22;32779;52.264;6.154;2023-02-28T08:25:58;3.50;99.90
47022;DHT22;32779;52.264;6.154;2023-02-28T08:28:25;3.60;99.90
47022;DHT22;32779;52.264;6.154;2023-02-28T08:30:50;3.70;99.90
47022;DHT22;32779;52.264;6.154;2023-02-28T08:33:16;3.70;99.90
47022;DHT22;32779;52.264;6.154;2023-02-28T08:35:41;3.70;99.90
47022;DHT22;32779;52.264;6.154;2023-02-28T08:38:07;3.80;99.90
47022;DHT22;32779;52.264;6.154;2023-02-28T08:40:33;3.90;99.90
47022;DHT22;32779;52.264;6.154;2023-02-28T08:42:58;3.90;99.90
47022;DHT22;32779;52.264;6.154;2023-02-28T08:45:25;4.00;99.90
47022;DHT22;32779;52.264;6.154;2023-02-28T08:47:51;4.00;99.90
47022;DHT22;32779;52.264;6.154;2023-02-28T08:50:17;4.10;98.10
47022;DHT22;32779;52.264;6.154;2023-02-28T08:52:43;4.10;96.40
47022;DHT22;32779;52.264;6.154;2023-02-28T08:55:09;4.00;96.70
47022;DHT22;32779;52.264;6.154;2023-02-28T08:57:38;4.00;96.80
47022;DHT22;32779;52.264;6.154;2023-02-28T09:00:04;4.00;96.30
47022;DHT22;32779;52.264;6.154;2023-02-28T09:02:31;4.00;95.30
47022;DHT22;32779;52.264;6.154;2023-02-28T09:04:57;4.00;94.50
47022;DHT22;32779;52.264;6.154;2023-02-28T09:07:23;4.00;95.60
47022;DHT22;32779;52.264;6.154;2023-02-28T09:09:49;4.10;94.90
47022;DHT22;32779;52.264;6.154;2023-02-28T09:12:25;4.10;94.90
47022;DHT22;32779;52.264;6.154;2023-02-28T09:14:51;4.10;95.00
47022;DHT22;32779;52.264;6.154;2023-02-28T09:17:17;4.20;95.10
47022;DHT22;32779;52.264;6.154;2023-02-28T09:19:42;4.20;94.50
47022;DHT22;32779;52.264;6.154;2023-02-28T09:22:09;4.30;93.70
47022;DHT22;32779;52.264;6.154;2023-02-28T09:24:36;4.20;92.90
47022;DHT22;32779;52.264;6.154;2023-02-28T09:27:02;4.20;92.90
47022;DHT22;32779;52.264;6.154;2023-02-28T09:29:28;4.20;92.90
47022;DHT22;32779;52.264;6.154;2023-02-28T09:31:54;4.10;93.30
47022;DHT22;32779;52.264;6.154;2023-02-28T09:34:19;4.20;93.40
47022;DHT22;32779;52.264;6.154;2023-02-28T09:36:45;4.20;92.00
47022;DHT22;32779;52.264;6.154;2023-02-28T09:39:11;4.20;91.20
47022;DHT22;32779;52.264;6.154;2023-02-28T09:41:41;4.20;91.50
47022;DHT22;32779;52.264;6.154;2023-02-28T09:47:13;4.20;90.00
47022;DHT22;32779;52.264;6.154;2023-02-28T09:49:46;4.30;91.20
47022;DHT22;32779;52.264;6.154;2023-02-28T09:52:21;4.30;90.80
47022;DHT22;32779;52.264;6.154;2023-02-28T09:54:49;4.30;89.70
47022;DHT22;32779;52.264;6.154;2023-02-28T09:57:37;4.30;89.90
47022;DHT22;32779;52.264;6.154;2023-02-28T10:00:07;4.30;90.10
47022;DHT22;32779;52.264;6.154;2023-02-28T10:05:16;4.30;90.60
47022;DHT22;32779;52.264;6.154;2023-02-28T10:10:44;4.40;90.10
47022;DHT22;32779;52.264;6.154;2023-02-28T10:15:45;4.40;91.00
47022;DHT22;32779;52.264;6.154;2023-02-28T10:18:16;4.40;90.40
47022;DHT22;32779;52.264;6.154;2023-02-28T10:20:45;4.50;90.70
47022;DHT22;32779;52.264;6.154;2023-02-28T10:23:26;4.50;90.40
47022;DHT22;32779;52.264;6.154;2023-02-28T10:26:20;4.60;90.40
47022;DHT22;32779;52.264;6.154;2023-02-28T10:28:45;4.60;90.50
47022;DHT22;32779;52.264;6.154;2023-02-28T10:31:14;4.70;90.50
47022;DHT22;32779;52.264;6.154;2023-02-28T10:33:44;4.70;90.40
47022;DHT22;32779;52.264;6.154;2023-02-28T10:36:19;4.70;90.00
47022;DHT22;32779;52.264;6.154;2023-02-28T10:38:46;4.70;90.60
47022;DHT22;32779;52.264;6.154;2023-02-28T10:41:26;4.70;90.70
47022;DHT22;32779;52.264;6.154;2023-02-28T10:44:20;4.70;90.00
47022;DHT22;32779;52.264;6.154;2023-02-28T10:46:46;4.70;90.10
47022;DHT22;32779;52.264;6.154;2023-02-28T10:49:27;4.70;89.60
47022;DHT22;32779;52.264;6.154;2023-02-28T10:52:00;4.60;89.70
47022;DHT22;32779;52.264;6.154;2023-02-28T10:54:33;4.60;90.20
47022;DHT22;32779;52.264;6.154;2023-02-28T10:57:19;4.60;90.60
47022;DHT22;32779;52.264;6.154;2023-02-28T10:59:46;4.60;90.40
47022;DHT22;32779;52.264;6.154;2023-02-28T11:02:36;4.60;90.30
47022;DHT22;32779;52.264;6.154;2023-02-28T11:05:29;4.70;90.20
47022;DHT22;32779;52.264;6.154;2023-02-28T11:08:16;4.70;90.10
47022;DHT22;32779;52.264;6.154;2023-02-28T11:10:54;4.70;90.40
47022;DHT22;32779;52.264;6.154;2023-02-28T11:13:35;4.70;90.80
47022;DHT22;32779;52.264;6.154;2023-02-28T11:16:08;4.80;90.20
47022;DHT22;32779;52.264;6.154;2023-02-28T11:21:15;4.80;90.90
47022;DHT22;32779;52.264;6.154;2023-02-28T11:23:42;4.80;90.90
47022;DHT22;32779;52.264;6.154;2023-02-28T11:26:09;4.80;91.00
47022;DHT22;32779;52.264;6.154;2023-02-28T11:28:39;4.90;90.80
47022;DHT22;32779;52.264;6.154;2023-02-28T11:31:15;4.90;90.50
47022;DHT22;32779;52.264;6.154;2023-02-28T11:36:36;4.90;90.50
47022;DHT22;32779;52.264;6.154;2023-02-28T11:39:11;4.90;90.50
47022;DHT22;32779;52.264;6.154;2023-02-28T11:44:48;4.90;90.80
47022;DHT22;32779;52.264;6.154;2023-02-28T11:47:30;5.00;91.10
47022;DHT22;32779;52.264;6.154;2023-02-28T11:50:08;5.00;90.20
47022;DHT22;32779;52.264;6.154;2023-02-28T11:52:44;5.00;90.70
47022;DHT22;32779;52.264;6.154;2023-02-28T11:55:19;4.90;90.50
47022;DHT22;32779;52.264;6.154;2023-02-28T12:00:33;4.90;90.90
47022;DHT22;32779;52.264;6.154;2023-02-28T12:03:30;4.90;91.00
47022;DHT22;32779;52.264;6.154;2023-02-28T12:08:53;5.00;90.60
47022;DHT22;32779;52.264;6.154;2023-02-28T12:20:05;5.20;90.50
47022;DHT22;32779;52.264;6.154;2023-02-28T12:22:55;5.20;90.30
47022;DHT22;32779;52.264;6.154;2023-02-28T12:28:31;5.20;90.80
47022;DHT22;32779;52.264;6.154;2023-02-28T12:31:00;5.30;91.40
47022;DHT22;32779;52.264;6.154;2023-02-28T12:33:31;5.40;91.40
47022;DHT22;32779;52.264;6.154;2023-02-28T12:36:03;5.50;90.30
47022;DHT22;32779;52.264;6.154;2023-02-28T12:38:44;5.50;90.50
47022;DHT22;32779;52.264;6.154;2023-02-28T12:43:45;5.50;90.20
47022;DHT22;32779;52.264;6.154;2023-02-28T12:48:48;5.60;90.10
47022;DHT22;32779;52.264;6.154;2023-02-28T12:51:16;5.60;90.20
47022;DHT22;32779;52.264;6.154;2023-02-28T12:54:25;5.60;89.40
47022;DHT22;32779;52.264;6.154;2023-02-28T12:57:06;5.60;90.10
47022;DHT22;32779;52.264;6.154;2023-02-28T13:08:41;5.60;90.40
47022;DHT22;32779;52.264;6.154;2023-02-28T13:11:45;5.60;90.30
47022;DHT22;32779;52.264;6.154;2023-02-28T13:14:28;5.70;90.40
47022;DHT22;32779;52.264;6.154;2023-02-28T13:16:57;5.70;90.10
47022;DHT22;32779;52.264;6.154;2023-02-28T13:19:26;5.70;90.10
47022;DHT22;32779;52.264;6.154;2023-02-28T13:21:52;5.70;89.10
47022;DHT22;32779;52.264;6.154;2023-02-28T13:29:36;5.70;89.90
47022;DHT22;32779;52.264;6.154;2023-02-28T13:34:31;5.70;89.00
47022;DHT22;32779;52.264;6.154;2023-02-28T13:39:49;5.70;87.70
47022;DHT22;32779;52.264;6.154;2023-02-28T13:42:35;5.80;87.10
47022;DHT22;32779;52.264;6.154;2023-02-28T13:47:40;5.80;87.10
47022;DHT22;32779;52.264;6.154;2023-02-28T13:58:20;5.80;86.50
47022;DHT22;32779;52.264;6.154;2023-02-28T14:04:11;5.90;86.40
47022;DHT22;32779;52.264;6.154;2023-02-28T14:06:48;5.90;86.50
47022;DHT22;32779;52.264;6.154;2023-02-28T14:09:34;5.90;86.30
47022;DHT22;32779;52.264;6.154;2023-02-28T14:15:23;6.00;86.20
47022;DHT22;32779;52.264;6.154;2023-02-28T14:17:54;6.00;83.20
47022;DHT22;32779;52.264;6.154;2023-02-28T14:20:22;6.00;84.20
47022;DHT22;32779;52.264;6.154;2023-02-28T14:23:21;6.00;85.30
47022;DHT22;32779;52.264;6.154;2023-02-28T14:28:44;6.00;84.90
47022;DHT22;32779;52.264;6.154;2023-02-28T14:31:15;6.00;83.90
47022;DHT22;32779;52.264;6.154;2023-02-28T14:36:45;6.00;84.50
47022;DHT22;32779;52.264;6.154;2023-02-28T14:39:17;6.00;85.20
47022;DHT22;32779;52.264;6.154;2023-02-28T14:41:45;6.10;83.80
47022;DHT22;32779;52.264;6.154;2023-02-28T14:44:18;6.00;85.10
47022;DHT22;32779;52.264;6.154;2023-02-28T14:46:45;6.00;85.10
47022;DHT22;32779;52.264;6.154;2023-02-28T14:49:27;6.00;85.90
47022;DHT22;32779;52.264;6.154;2023-02-28T14:52:15;6.00;86.30
47022;DHT22;32779;52.264;6.154;2023-02-28T14:54:43;6.00;85.20
47022;DHT22;32779;52.264;6.154;2023-02-28T14:57:29;6.10;86.40
47022;DHT22;32779;52.264;6.154;2023-02-28T15:02:36;6.00;86.20
47022;DHT22;32779;52.264;6.154;2023-02-28T15:07:45;6.00;86.40
47022;DHT22;32779;52.264;6.154;2023-02-28T15:10:19;6.00;87.50
47022;DHT22;32779;52.264;6.154;2023-02-28T15:13:02;6.00;87.90
47022;DHT22;32779;52.264;6.154;2023-02-28T15:15:50;6.00;88.70
47022;DHT22;32779;52.264;6.154;2023-02-28T15:21:06;6.00;87.70
47022;DHT22;32779;52.264;6.154;2023-02-28T15:23:35;6.00;88.00
47022;DHT22;32779;52.264;6.154;2023-02-28T15:26:02;6.00;88.30
47022;DHT22;32779;52.264;6.154;2023-02-28T15:28:28;6.00;89.00
47022;DHT22;32779;52.264;6.154;2023-02-28T15:31:00;6.00;88.10
47022;DHT22;32779;52.264;6.154;2023-02-28T15:33:28;6.00;88.50
47022;DHT22;32779;52.264;6.154;2023-02-28T15:36:13;5.90;89.20
47022;DHT22;32779;52.264;6.154;2023-02-28T15:38:39;5.90;89.40
47022;DHT22;32779;52.264;6.154;2023-02-28T15:41:05;5.90;90.20
47022;DHT22;32779;52.264;6.154;2023-02-28T15:43:37;5.90;90.00
47022;DHT22;32779;52.264;6.154;2023-02-28T15:46:10;5.90;90.30
47022;DHT22;32779;52.264;6.154;2023-02-28T15:48:54;5.90;90.70
47022;DHT22;32779;52.264;6.154;2023-02-28T15:51:30;5.90;90.30
47022;DHT22;32779;52.264;6.154;2023-02-28T15:54:00;5.90;90.60
47022;DHT22;32779;52.264;6.154;2023-02-28T15:56:31;5.90;90.20
47022;DHT22;32779;52.264;6.154;2023-02-28T15:59:02;5.90;90.90
47022;DHT22;32779;52.264;6.154;2023-02-28T16:01:30;5.90;91.00
47022;DHT22;32779;52.264;6.154;2023-02-28T16:04:01;5.90;90.60
47022;DHT22;32779;52.264;6.154;2023-02-28T16:06:34;5.80;90.70
47022;DHT22;32779;52.264;6.154;2023-02-28T16:09:02;5.80;91.00
47022;DHT22;32779;52.264;6.154;2023-02-28T16:11:28;5.80;91.00
47022;DHT22;32779;52.264;6.154;2023-02-28T16:13:54;5.80;91.10
47022;DHT22;32779;52.264;6.154;2023-02-28T16:16:22;5.80;91.30
47022;DHT22;32779;52.264;6.154;2023-02-28T16:18:48;5.80;91.30
47022;DHT22;32779;52.264;6.154;2023-02-28T16:21:14;5.70;91.50
47022;DHT22;32779;52.264;6.154;2023-02-28T16:23:39;5.70;91.70
47022;DHT22;32779;52.264;6.154;2023-02-28T16:26:06;5.70;91.80
47022;DHT22;32779;52.264;6.154;2023-02-28T16:28:36;5.70;91.80
47022;DHT22;32779;52.264;6.154;2023-02-28T16:31:05;5.70;92.30
47022;DHT22;32779;52.264;6.154;2023-02-28T16:33:32;5.60;92.10
47022;DHT22;32779;52.264;6.154;2023-02-28T16:35:58;5.60;92.10
47022;DHT22;32779;52.264;6.154;2023-02-28T16:38:24;5.60;92.10
47022;DHT22;32779;52.264;6.154;2023-02-28T16:40:51;5.60;92.30
47022;DHT22;32779;52.264;6.154;2023-02-28T16:43:23;5.50;92.20
47022;DHT22;32779;52.264;6.154;2023-02-28T16:45:57;5.50;92.40
47022;DHT22;32779;52.264;6.154;2023-02-28T16:48:23;5.50;92.70
47022;DHT22;32779;52.264;6.154;2023-02-28T16:50:49;5.40;92.20
47022;DHT22;32779;52.264;6.154;2023-02-28T16:53:14;5.40;92.30
47022;DHT22;32779;52.264;6.154;2023-02-28T16:55:40;5.40;92.10
47022;DHT22;32779;52.264;6.154;2023-02-28T16:58:06;5.40;92.10
47022;DHT22;32779;52.264;6.154;2023-02-28T17:00:33;5.30;92.50
47022;DHT22;32779;52.264;6.154;2023-02-28T17:02:59;5.20;92.10
47022;DHT22;32779;52.264;6.154;2023-02-28T17:05:26;5.20;91.70
47022;DHT22;32779;52.264;6.154;2023-02-28T17:07:53;5.20;91.90
47022;DHT22;32779;52.264;6.154;2023-02-28T17:10:24;5.10;92.10
47022;DHT22;32779;52.264;6.154;2023-02-28T17:12:51;5.00;92.10
47022;DHT22;32779;52.264;6.154;2023-02-28T17:15:17;5.00;92.00
47022;DHT22;32779;52.264;6.154;2023-02-28T17:17:44;4.90;91.90
47022;DHT22;32779;52.264;6.154;2023-02-28T17:20:21;4.90;92.00
47022;DHT22;32779;52.264;6.154;2023-02-28T17:22:49;4.80;92.40
47022;DHT22;32779;52.264;6.154;2023-02-28T17:25:14;4.80;92.40
47022;DHT22;32779;52.264;6.154;2023-02-28T17:27:40;4.70;92.60
47022;DHT22;32779;52.264;6.154;2023-02-28T17:30:22;4.60;92.60
47022;DHT22;32779;52.264;6.154;2023-02-28T17:32:48;4.60;92.60
47022;DHT22;32779;52.264;6.154;2023-02-28T17:35:14;4.50;92.70
47022;DHT22;32779;52.264;6.154;2023-02-28T17:37:40;4.50;92.80
47022;DHT22;32779;52.264;6.154;2023-02-28T17:40:06;4.40;92.80
47022;DHT22;32779;52.264;6.154;2023-02-28T17:42:33;4.30;93.00
47022;DHT22;32779;52.264;6.154;2023-02-28T17:44:59;4.20;93.00
47022;DHT22;32779;52.264;6.154;2023-02-28T17:47:24;4.20;93.40
47022;DHT22;32779;52.264;6.154;2023-02-28T17:49:50;4.20;93.10
47022;DHT22;32779;52.264;6.154;2023-02-28T17:52:16;4.10;93.50
47022;DHT22;32779;52.264;6.154;2023-02-28T17:54:41;4.00;93.60
47022;DHT22;32779;52.264;6.154;2023-02-28T17:57:13;4.00;93.70
47022;DHT22;32779;52.264;6.154;2023-02-28T17:59:40;4.00;93.80
47022;DHT22;32779;52.264;6.154;2023-02-28T18:02:06;3.90;93.70
47022;DHT22;32779;52.264;6.154;2023-02-28T18:04:32;3.80;94.00
47022;DHT22;32779;52.264;6.154;2023-02-28T18:06:57;3.80;94.00
47022;DHT22;32779;52.264;6.154;2023-02-28T18:09:26;3.80;94.00